Time;durP1;ratioP1;P1;durP2;ratioP2;P2;SDS_P1;SDS_P2;PMS_P1;PMS_P2;Temp;Humidity;BMP_temperature;BMP_pressure;BME280_temperature;BME280_humidity;BME280_pressure;Samples;Min_cycle;Max_cycle;Signal;HPM_P1;HPM_P2
2020/12/12 00:01:37;;;;;;;42.57;26.40;;;0.10;99.90;;;1.37;78.97;92237.53;5033723;28;20658;-71
2020/12/12 00:04:03;;;;;;;42.47;26.30;;;0.20;99.90;;;1.37;79.01;92228.91;5032280;28;20204;-71
2020/12/12 00:06:29;;;;;;;39.83;24.40;;;0.20;99.90;;;1.52;78.59;92234.22;5034537;28;20179;-71
2020/12/12 00:08:55;;;;;;;51.17;25.40;;;0.30;99.90;;;1.64;78.44;92232.22;5029014;28;20255;-71
2020/12/12 00:11:22;;;;;;;49.33;26.77;;;0.50;99.90;;;1.65;78.36;92230.38;5020955;28;20199;-71
2020/12/12 00:13:48;;;;;;;42.27;25.53;;;0.50;99.90;;;1.69;78.50;92227.03;5032696;28;20677;-71
2020/12/12 00:16:17;;;;;;;38.40;24.53;;;0.60;99.90;;;1.85;78.80;92235.72;5032595;28;20275;-71
2020/12/12 00:18:44;;;;;;;37.80;24.30;;;0.70;99.90;;;1.89;78.18;92234.97;5032329;28;20212;-71
2020/12/12 00:21:15;;;;;;;41.60;26.40;;;0.80;99.90;;;1.93;78.68;92243.88;5032466;28;20188;-72
2020/12/12 00:23:41;;;;;;;43.83;27.17;;;0.80;99.90;;;2.02;78.53;92244.19;5032918;28;20218;-70
2020/12/12 00:26:10;;;;;;;38.60;25.27;;;0.90;99.90;;;2.10;78.64;92248.94;5030891;28;20192;-70
2020/12/12 00:28:38;;;;;;;37.27;24.87;;;1.00;99.90;;;2.15;78.70;92248.19;5033505;28;20205;-71
2020/12/12 00:31:04;;;;;;;35.60;24.70;;;1.10;99.90;;;2.13;79.23;92247.66;5031730;28;20318;-71
2020/12/12 00:33:30;;;;;;;36.23;24.63;;;1.10;99.90;;;2.15;79.22;92248.97;5025345;28;20320;-71
2020/12/12 00:35:59;;;;;;;34.53;23.87;;;1.10;99.90;;;2.14;78.54;92249.22;5012379;28;20264;-71
2020/12/12 00:38:26;;;;;;;36.97;24.30;;;1.10;99.90;;;2.18;78.86;92247.69;5014778;28;20201;-72
2020/12/12 00:40:58;;;;;;;36.97;24.83;;;1.10;99.90;;;2.13;78.41;92256.28;5013156;28;20193;-72
2020/12/12 00:43:25;;;;;;;32.93;23.37;;;1.00;99.90;;;2.18;79.04;92238.03;4996501;28;20188;-71
2020/12/12 00:45:51;;;;;;;36.10;23.73;;;1.20;99.90;;;2.12;78.92;92251.28;5014424;28;20376;-71
2020/12/12 00:48:17;;;;;;;30.43;21.73;;;1.10;99.90;;;2.34;79.17;92250.13;5011812;28;20258;-71
2020/12/12 00:50:48;;;;;;;31.33;22.50;;;1.20;99.90;;;2.24;78.89;92244.84;5032421;28;20207;-73
2020/12/12 00:53:14;;;;;;;31.47;21.70;;;1.20;99.90;;;2.22;78.91;92254.75;5032058;28;20180;-72
2020/12/12 00:55:43;;;;;;;30.10;21.40;;;1.10;99.90;;;2.19;79.27;92252.63;5048844;28;20688;-73
2020/12/12 00:58:12;;;;;;;29.73;20.83;;;1.10;99.90;;;2.15;79.38;92258.66;5026621;28;20604;-73
2020/12/12 01:00:37;;;;;;;30.43;21.03;;;1.10;99.90;;;2.26;79.46;92255.03;5016539;28;20724;-72
2020/12/12 01:03:04;;;;;;;30.57;20.37;;;1.20;99.90;;;2.22;79.25;92261.78;5015463;28;20215;-71
2020/12/12 01:05:33;;;;;;;27.50;18.97;;;1.20;99.90;;;2.33;78.95;92261.59;5033119;28;20184;-71
2020/12/12 01:08:00;;;;;;;29.83;20.30;;;1.30;99.90;;;2.24;78.82;92264.94;5003712;28;20631;-72
2020/12/12 01:10:29;;;;;;;25.53;19.53;;;1.20;99.90;;;2.32;79.37;92257.41;5016558;28;20529;-71
2020/12/12 01:12:57;;;;;;;25.90;18.50;;;1.30;99.90;;;2.24;78.83;92262.34;5031942;28;20279;-73
2020/12/12 01:15:23;;;;;;;25.17;17.10;;;1.20;99.90;;;2.31;78.72;92286.41;5047709;28;20698;-72
2020/12/12 01:17:49;;;;;;;21.77;16.10;;;1.20;99.90;;;2.36;79.14;92279.38;5029921;28;20601;-72
2020/12/12 01:20:15;;;;;;;23.07;16.47;;;1.30;99.90;;;2.30;78.88;92285.63;5012447;28;20193;-72
2020/12/12 01:22:41;;;;;;;23.90;16.87;;;1.20;99.90;;;2.32;79.33;92280.91;5011962;28;20185;-72
2020/12/12 01:25:08;;;;;;;21.60;15.93;;;1.30;99.90;;;2.27;79.41;92283.53;5017811;28;20185;-72
2020/12/12 01:27:33;;;;;;;22.90;16.63;;;1.30;99.90;;;2.39;79.05;92285.91;5044735;28;20211;-72
2020/12/12 01:30:03;;;;;;;21.97;16.63;;;1.30;99.90;;;2.37;79.44;92282.78;5031354;28;20578;-73
2020/12/12 01:32:31;;;;;;;22.90;16.87;;;1.30;99.90;;;2.45;79.46;92284.94;5031497;28;20195;-72
2020/12/12 01:34:57;;;;;;;22.67;16.17;;;1.40;99.90;;;2.55;79.22;92290.97;5031589;28;20306;-72
2020/12/12 01:37:24;;;;;;;22.60;16.33;;;1.50;99.90;;;2.53;79.10;92285.22;5032776;28;20638;-73
2020/12/12 01:39:50;;;;;;;22.70;16.73;;;1.50;99.90;;;2.53;78.80;92279.19;5017247;28;20185;-72
2020/12/12 01:42:16;;;;;;;21.37;16.00;;;1.50;99.90;;;2.65;79.38;92289.44;5011509;28;20192;-72
2020/12/12 01:44:42;;;;;;;22.13;16.17;;;1.60;99.90;;;2.57;79.33;92288.09;5011496;28;20182;-73
2020/12/12 01:47:09;;;;;;;22.70;16.97;;;1.60;99.90;;;2.59;79.21;92297.25;5011050;28;20180;-73
2020/12/12 01:49:35;;;;;;;22.57;16.93;;;1.60;99.90;;;2.70;78.86;92292.88;5031494;28;20179;-70
2020/12/12 01:52:03;;;;;;;22.60;17.07;;;1.60;99.90;;;2.65;79.09;92300.69;5014656;28;20728;-74
2020/12/12 01:54:32;;;;;;;22.73;16.43;;;1.60;99.90;;;2.65;79.49;92287.63;5046866;28;20200;-71
2020/12/12 01:57:02;;;;;;;23.03;16.83;;;1.70;99.90;;;2.57;79.19;92299.34;5029484;28;20242;-71
2020/12/12 01:59:30;;;;;;;23.03;16.90;;;1.60;99.90;;;2.61;79.08;92286.56;5031002;28;20204;-71
2020/12/12 02:02:00;;;;;;;25.37;17.20;;;1.70;99.90;;;2.55;79.71;92279.75;5031556;28;20275;-72
2020/12/12 02:04:32;;;;;;;23.87;16.87;;;1.60;99.90;;;2.54;78.75;92280.78;5031106;28;20215;-71
2020/12/12 02:06:58;;;;;;;23.63;16.90;;;1.50;99.90;;;2.63;79.40;92284.47;5031191;28;20176;-72
2020/12/12 02:09:24;;;;;;;22.30;15.87;;;1.60;99.90;;;2.88;79.13;92291.63;5028509;28;20200;-72
2020/12/12 02:11:50;;;;;;;21.70;16.63;;;1.80;99.90;;;2.82;79.06;92282.19;5003206;28;20201;-72
2020/12/12 02:14:18;;;;;;;21.83;16.50;;;1.80;99.90;;;2.91;79.32;92289.28;5030355;28;21750;-72
2020/12/12 02:17:01;;;;;;;20.43;15.73;;;1.90;99.90;;;2.98;78.90;92296.88;5031344;28;20192;-72
2020/12/12 02:19:29;;;;;;;20.13;15.37;;;1.90;99.90;;;3.08;78.85;92289.06;5032424;28;20342;-72
2020/12/12 02:22:00;;;;;;;19.20;14.63;;;2.10;99.90;;;3.05;79.33;92269.44;5030619;28;20234;-71
2020/12/12 02:24:29;;;;;;;20.07;14.60;;;2.10;99.90;;;3.18;79.04;92259.50;5013759;28;20177;-71
2020/12/12 02:27:01;;;;;;;17.47;13.03;;;2.20;99.90;;;3.04;79.11;92248.75;5029738;28;20235;-71
2020/12/12 02:29:49;;;;;;;16.03;12.23;;;2.10;99.90;;;2.84;79.59;92265.19;5047249;28;20180;-71
2020/12/12 02:32:16;;;;;;;15.00;10.80;;;1.90;99.90;;;2.87;79.00;92263.88;5045282;28;20188;-72
2020/12/12 02:34:44;;;;;;;11.90;9.00;;;1.80;99.90;;;2.84;78.88;92251.31;5030866;28;20599;-72
2020/12/12 02:37:10;;;;;;;13.00;9.93;;;1.80;99.90;;;2.98;79.20;92262.88;5014896;28;20184;-71
2020/12/12 02:39:38;;;;;;;12.43;9.47;;;1.90;99.90;;;3.07;79.11;92249.03;5027035;28;20683;-71
2020/12/12 02:42:04;;;;;;;11.20;8.67;;;2.00;99.90;;;3.14;79.43;92246.16;5023431;28;20185;-71
2020/12/12 02:44:32;;;;;;;12.17;9.67;;;2.00;99.90;;;3.08;79.25;92250.59;4997699;28;20195;-72
2020/12/12 02:46:58;;;;;;;10.07;7.77;;;2.00;99.90;;;3.00;79.40;92250.31;5032110;28;20193;-72
2020/12/12 02:49:25;;;;;;;10.30;8.07;;;1.90;99.90;;;2.96;79.75;92254.47;5032170;28;20173;-71
2020/12/12 02:51:50;;;;;;;8.40;6.43;;;1.90;99.90;;;3.01;79.19;92262.34;5014397;28;20176;-71
2020/12/12 02:54:19;;;;;;;8.10;6.70;;;1.90;99.90;;;3.07;79.61;92251.63;5030526;28;20615;-72
2020/12/12 02:56:49;;;;;;;10.77;8.07;;;2.00;99.90;;;2.96;79.76;92257.09;5020925;28;20556;-70
2020/12/12 02:59:15;;;;;;;10.83;8.20;;;1.90;99.90;;;3.12;79.27;92258.72;5025857;28;20345;-71
2020/12/12 03:01:46;;;;;;;15.03;11.27;;;2.10;99.90;;;2.99;79.77;92262.59;5047357;28;20662;-72
2020/12/12 03:04:12;;;;;;;14.97;11.50;;;2.00;99.90;;;2.98;79.63;92268.91;5015177;28;20258;-71
2020/12/12 03:06:43;;;;;;;16.77;12.87;;;2.00;99.90;;;2.97;79.03;92269.94;5031853;28;20165;-72
2020/12/12 03:09:10;;;;;;;19.03;13.57;;;2.00;99.90;;;3.02;79.11;92263.94;5014520;28;20192;-71
2020/12/12 03:11:37;;;;;;;19.47;14.53;;;2.10;99.90;;;3.13;79.75;92259.47;5004249;28;20193;-71
2020/12/12 03:14:03;;;;;;;18.43;13.53;;;2.10;99.90;;;3.08;79.80;92252.44;5013727;28;20668;-71
2020/12/12 03:16:29;;;;;;;16.40;12.20;;;2.20;99.90;;;3.08;79.72;92255.03;5011029;28;20191;-71
2020/12/12 03:18:55;;;;;;;18.33;13.70;;;2.20;99.90;;;3.05;79.65;92248.50;4994374;28;20205;-72
2020/12/12 03:21:21;;;;;;;16.87;12.23;;;2.10;99.90;;;3.14;79.56;92240.13;5010825;28;20179;-71
2020/12/12 03:23:47;;;;;;;15.97;12.00;;;2.20;99.90;;;3.11;79.48;92233.59;5029889;28;20277;-71
2020/12/12 03:26:15;;;;;;;14.50;10.97;;;2.10;99.90;;;3.07;79.61;92235.16;5030406;28;20625;-71
2020/12/12 03:28:41;;;;;;;13.33;10.53;;;2.10;99.90;;;3.10;79.25;92234.63;5028044;28;20224;-72
2020/12/12 03:31:10;;;;;;;14.50;11.73;;;2.00;99.90;;;2.98;79.69;92237.50;5026400;28;20236;-71
2020/12/12 03:33:36;;;;;;;14.40;11.57;;;1.90;99.90;;;3.06;79.08;92239.59;5030502;28;20193;-71
2020/12/12 03:36:05;;;;;;;14.47;11.30;;;2.00;99.90;;;2.98;79.03;92239.31;5029828;28;20565;-72
2020/12/12 03:38:31;;;;;;;15.67;10.97;;;2.00;99.90;;;3.10;79.15;92256.34;5042682;28;20650;-71
2020/12/12 03:40:56;;;;;;;16.37;12.10;;;2.10;99.90;;;2.99;79.53;92238.25;5033886;28;20177;-72
2020/12/12 03:43:24;;;;;;;18.17;13.40;;;1.90;99.90;;;2.98;79.62;92223.63;5000934;28;20250;-71
2020/12/12 03:45:55;;;;;;;17.80;12.27;;;2.00;99.90;;;2.66;79.83;92225.63;5017976;28;20222;-72
2020/12/12 03:48:21;;;;;;;16.10;12.37;;;1.70;99.90;;;2.71;79.79;92216.00;5017816;28;20189;-72
2020/12/12 03:50:49;;;;;;;16.97;12.87;;;1.70;99.90;;;2.70;79.61;92224.06;5033545;28;20522;-72
2020/12/12 03:53:18;;;;;;;19.43;13.30;;;1.70;99.90;;;2.61;80.03;92215.97;5032770;28;20184;-71
2020/12/12 03:55:44;;;;;;;17.33;13.20;;;1.70;99.90;;;2.54;79.79;92237.13;5033458;28;20185;-71
2020/12/12 03:58:11;;;;;;;17.03;12.83;;;1.60;99.90;;;2.51;79.55;92250.72;5028333;28;20379;-72
2020/12/12 04:00:37;;;;;;;18.57;13.27;;;1.50;99.90;;;2.61;79.12;92249.94;5024262;28;20192;-72
2020/12/12 04:03:04;;;;;;;18.87;13.33;;;1.60;99.90;;;2.54;79.44;92252.00;5017075;28;20234;-71
2020/12/12 04:05:34;;;;;;;19.70;13.63;;;1.60;99.90;;;2.62;79.21;92250.75;5034646;28;20530;-71
2020/12/12 04:08:00;;;;;;;16.67;12.80;;;1.60;99.90;;;2.51;79.42;92253.31;5016754;28;20222;-71
2020/12/12 04:10:26;;;;;;;18.27;12.93;;;1.50;99.90;;;2.56;79.49;92255.94;5032966;28;20537;-72
2020/12/12 04:12:51;;;;;;;18.63;13.73;;;1.60;99.90;;;2.60;79.79;92253.59;5016822;28;20207;-72
2020/12/12 04:15:17;;;;;;;18.17;13.07;;;1.70;99.90;;;2.60;79.87;92253.59;5016961;28;20557;-72
2020/12/12 04:17:45;;;;;;;19.50;14.17;;;1.60;99.90;;;2.51;79.24;92252.53;5016507;28;20195;-71
2020/12/12 04:20:11;;;;;;;18.87;14.30;;;1.60;99.90;;;2.66;79.45;92255.19;5033229;28;20168;-71
2020/12/12 04:22:37;;;;;;;17.93;13.70;;;1.70;99.90;;;2.69;79.20;92252.06;5032836;28;20234;-72
2020/12/12 04:25:03;;;;;;;17.23;12.93;;;1.70;99.90;;;2.77;79.61;92269.88;5000130;28;20180;-72
2020/12/12 04:27:30;;;;;;;18.77;13.33;;;1.70;99.90;;;2.87;79.38;92262.06;5014319;28;20181;-72
2020/12/12 04:29:57;;;;;;;18.40;13.23;;;1.80;99.90;;;2.61;79.28;92252.56;5048074;28;20351;-72
2020/12/12 04:32:23;;;;;;;17.83;12.80;;;1.70;99.90;;;2.56;79.35;92265.59;5031420;28;20188;-72
2020/12/12 04:34:49;;;;;;;15.93;12.60;;;1.60;99.90;;;2.64;79.65;92280.81;5016311;28;20187;-72
2020/12/12 04:37:15;;;;;;;18.77;12.70;;;1.70;99.90;;;2.67;79.20;92274.28;5031000;28;20185;-72
2020/12/12 04:39:41;;;;;;;19.33;13.77;;;1.70;99.90;;;2.63;79.57;92279.22;5029603;28;20236;-71
2020/12/12 04:42:11;;;;;;;17.47;12.80;;;1.70;99.90;;;2.81;79.87;92265.72;4996301;28;20176;-71
2020/12/12 04:44:40;;;;;;;16.30;12.10;;;1.80;99.90;;;2.73;79.65;92255.72;4996509;28;20225;-72
2020/12/12 04:47:07;;;;;;;17.50;12.67;;;1.70;99.90;;;2.74;79.84;92262.53;4996689;28;20189;-72
2020/12/12 04:49:34;;;;;;;16.67;12.07;;;1.80;99.90;;;2.69;79.44;92266.94;5026516;28;20177;-71
2020/12/12 04:52:05;;;;;;;18.60;14.03;;;1.70;99.90;;;2.52;79.66;92252.25;5030511;28;20208;-71
2020/12/12 04:54:35;;;;;;;16.47;12.43;;;1.60;99.90;;;2.53;79.34;92263.50;5020696;28;20178;-71
2020/12/12 04:57:03;;;;;;;16.53;12.43;;;1.60;99.90;;;2.59;79.77;92281.56;5021940;28;20186;-71
2020/12/12 04:59:33;;;;;;;16.73;12.90;;;1.60;99.90;;;2.59;79.83;92267.72;5009321;28;20239;-71
2020/12/12 05:02:03;;;;;;;16.93;12.20;;;1.60;99.90;;;2.70;79.96;92273.75;5015746;28;20188;-71
2020/12/12 05:04:29;;;;;;;17.50;12.90;;;1.60;99.90;;;2.69;79.50;92275.59;5031274;28;20544;-71
2020/12/12 05:06:56;;;;;;;16.70;12.53;;;1.60;99.90;;;2.68;79.80;92274.03;5031688;28;20259;-71
2020/12/12 05:09:22;;;;;;;16.73;12.20;;;1.70;99.90;;;2.74;79.93;92275.63;5028908;28;20189;-71
2020/12/12 05:11:48;;;;;;;15.60;12.30;;;1.80;99.90;;;2.67;79.56;92282.91;5003973;28;20212;-71
2020/12/12 05:14:16;;;;;;;17.13;11.93;;;1.70;99.90;;;2.70;80.01;92286.84;5012471;28;20176;-71
2020/12/12 05:16:44;;;;;;;15.60;12.17;;;1.70;99.90;;;2.72;79.57;92290.00;4996420;28;20173;-71
2020/12/12 05:19:13;;;;;;;16.53;11.73;;;1.70;99.90;;;2.55;80.03;92280.50;4998332;28;20212;-71
2020/12/12 05:21:49;;;;;;;16.57;12.13;;;1.60;99.90;;;2.46;79.64;92297.72;5015903;28;20169;-71
2020/12/12 05:24:16;;;;;;;15.10;11.93;;;1.50;99.90;;;2.47;79.95;92286.25;5031868;28;20207;-71
2020/12/12 05:26:46;;;;;;;17.17;12.30;;;1.50;99.90;;;2.49;79.99;92286.75;5032130;28;20571;-71
2020/12/12 05:29:14;;;;;;;14.70;11.20;;;1.50;99.90;;;2.49;79.84;92285.97;5032410;28;20164;-71
2020/12/12 05:31:40;;;;;;;14.10;10.87;;;1.50;99.90;;;2.37;80.20;92267.91;5031273;28;20238;-71
2020/12/12 05:34:15;;;;;;;14.07;10.80;;;1.50;99.90;;;2.28;79.81;92287.72;5031262;28;20176;-72
2020/12/12 05:36:45;;;;;;;15.10;10.63;;;1.40;99.90;;;2.24;80.29;92286.66;5031598;28;20263;-71
2020/12/12 05:39:19;;;;;;;14.63;10.57;;;1.30;99.90;;;2.25;79.92;92288.19;5031526;28;20262;-72
2020/12/12 05:41:49;;;;;;;14.67;11.20;;;1.30;99.90;;;2.33;79.88;92294.78;5015577;28;20181;-73
2020/12/12 05:44:18;;;;;;;14.40;10.67;;;1.30;99.90;;;2.24;79.45;92293.69;5031394;28;20180;-73
2020/12/12 05:46:46;;;;;;;15.23;11.23;;;1.30;99.90;;;2.28;79.43;92302.59;5032295;28;20263;-73
2020/12/12 05:49:13;;;;;;;14.53;10.70;;;1.30;99.90;;;2.30;79.28;92297.91;5047241;28;20212;-73
2020/12/12 05:51:41;;;;;;;14.70;11.20;;;1.30;99.90;;;2.21;79.28;92288.97;5031525;28;20503;-73
2020/12/12 05:54:07;;;;;;;13.17;9.93;;;1.20;99.90;;;1.95;79.70;92278.38;5014946;28;20200;-70
2020/12/12 05:56:34;;;;;;;14.23;10.40;;;1.10;99.90;;;1.70;79.40;92280.81;5014781;28;20594;-73
2020/12/12 05:59:00;;;;;;;14.30;10.27;;;0.80;99.90;;;1.71;80.03;92279.78;5027552;28;20328;-73
2020/12/12 06:01:29;;;;;;;13.97;10.53;;;0.70;99.90;;;1.75;79.86;92275.63;5028753;28;20223;-73
2020/12/12 06:04:09;;;;;;;14.60;10.67;;;0.80;99.90;;;1.67;79.98;92276.09;5031175;28;20215;-72
2020/12/12 06:06:47;;;;;;;14.07;10.37;;;0.70;99.90;;;1.60;79.61;92280.75;5032821;28;20954;-72
2020/12/12 06:09:15;;;;;;;14.13;10.67;;;0.70;99.90;;;1.51;79.19;92271.81;5027019;28;20250;-72
2020/12/12 06:11:44;;;;;;;14.17;9.87;;;0.60;99.90;;;1.46;79.83;92275.16;5023535;28;20235;-72
2020/12/12 06:14:19;;;;;;;14.30;10.27;;;0.50;99.90;;;1.45;79.65;92288.44;5030424;28;20192;-72
2020/12/12 06:16:45;;;;;;;15.23;11.37;;;0.50;99.90;;;1.38;80.39;92280.03;5031171;28;20172;-72
2020/12/12 06:19:17;;;;;;;13.97;10.23;;;0.40;99.90;;;1.45;80.18;92286.63;5014341;28;20212;-72
2020/12/12 06:21:51;;;;;;;13.17;9.87;;;0.40;99.90;;;1.35;80.05;92272.69;5031007;28;20534;-71
2020/12/12 06:24:19;;;;;;;15.90;11.00;;;0.40;99.90;;;1.08;79.48;92277.16;5030786;28;20171;-71
2020/12/12 06:27:06;;;;;;;13.13;9.73;;;0.20;99.90;;;1.01;79.86;92299.00;5030715;28;20704;-71
2020/12/12 06:29:44;;;;;;;16.97;10.07;;;0.00;99.90;;;1.08;79.98;92298.03;5030865;28;20330;-71
2020/12/12 06:32:20;;;;;;;17.70;10.63;;;0.10;99.90;;;1.20;79.64;92314.31;5014500;28;20227;-72
2020/12/12 06:34:48;;;;;;;15.57;11.13;;;0.20;99.90;;;1.29;79.85;92307.63;5014555;28;20666;-72
2020/12/12 06:37:38;;;;;;;16.47;11.53;;;0.30;99.90;;;1.24;80.24;92325.84;5030729;28;20161;-71
2020/12/12 06:40:15;;;;;;;16.40;11.87;;;0.20;99.90;;;1.28;80.38;92312.03;5023691;28;20195;-72
2020/12/12 06:42:44;;;;;;;22.53;14.70;;;0.20;99.90;;;1.22;79.62;92307.81;5030315;28;20641;-71
2020/12/12 06:45:16;;;;;;;19.60;13.57;;;0.20;99.90;;;1.22;80.35;92307.03;5029939;28;20180;-71
2020/12/12 06:47:48;;;;;;;18.97;12.67;;;0.20;99.90;;;1.25;79.84;92307.31;5026139;28;20208;-71
2020/12/12 06:50:23;;;;;;;16.57;12.17;;;0.20;99.90;;;1.23;80.00;92319.03;5011892;28;20172;-72
2020/12/12 06:52:50;;;;;;;16.67;12.10;;;0.20;99.90;;;1.20;79.36;92324.75;5011105;28;20160;-72
2020/12/12 06:55:22;;;;;;;17.27;12.17;;;0.20;99.90;;;1.19;79.95;92331.78;5031045;28;20203;-71
2020/12/12 06:57:55;;;;;;;16.90;11.80;;;0.20;99.90;;;1.24;80.51;92333.69;5025201;28;20173;-72
2020/12/12 07:00:33;;;;;;;16.40;11.07;;;0.20;99.90;;;1.10;79.42;92346.31;5043668;28;20172;-73
2020/12/12 07:03:00;;;;;;;18.97;11.70;;;0.10;99.90;;;1.13;79.45;92347.63;5010027;28;20172;-70
2020/12/12 07:05:32;;;;;;;19.00;11.83;;;0.10;99.90;;;1.13;80.30;92340.59;5028736;28;20295;-73
2020/12/12 07:08:09;;;;;;;17.37;11.67;;;0.10;99.90;;;1.20;80.11;92356.84;5027968;28;20570;-73
2020/12/12 07:10:38;;;;;;;21.37;12.40;;;0.20;99.90;;;1.23;80.10;92355.56;5026784;28;20183;-73
2020/12/12 07:13:08;;;;;;;18.43;12.67;;;0.20;99.90;;;1.30;80.15;92361.38;5014571;28;20215;-73
2020/12/12 07:15:36;;;;;;;19.23;12.93;;;0.30;99.90;;;1.40;80.02;92369.31;5031980;28;20214;-71
2020/12/12 07:18:09;;;;;;;19.43;13.30;;;0.40;99.90;;;1.48;80.13;92369.66;5030457;28;20265;-71
2020/12/12 07:20:47;;;;;;;19.80;13.00;;;0.40;99.90;;;1.53;80.31;92371.53;5031001;28;20180;-72
2020/12/12 07:23:18;;;;;;;20.40;13.63;;;0.50;99.90;;;1.73;80.44;92383.97;5028949;28;20188;-72
2020/12/12 07:25:44;;;;;;;46.97;17.67;;;0.60;99.90;;;1.76;80.35;92386.06;5027446;28;20863;-72
2020/12/12 07:28:11;;;;;;;94.83;19.83;;;0.60;99.90;;;1.94;79.95;92394.34;5012343;28;20192;-71
2020/12/12 07:30:39;;;;;;;117.50;19.37;;;0.80;99.90;;;2.18;80.00;92379.13;5030699;28;20230;-69
2020/12/12 07:33:05;;;;;;;83.43;19.33;;;0.90;99.90;;;2.27;79.97;92392.50;5030957;28;20246;-73
2020/12/12 07:35:32;;;;;;;76.63;17.10;;;1.10;99.90;;;2.47;79.98;92382.16;5031520;28;20192;-71
2020/12/12 07:38:04;;;;;;;41.77;15.27;;;1.30;99.90;;;2.48;80.14;92399.44;5029829;28;20251;-71
2020/12/12 07:40:38;;;;;;;17.53;12.90;;;1.30;99.90;;;2.74;80.48;92401.16;5030775;28;20631;-71
2020/12/12 07:43:08;;;;;;;19.00;13.10;;;1.50;99.90;;;3.09;80.18;92416.22;5023409;28;20180;-71
2020/12/12 07:48:14;;;;;;;12.43;9.57;;;2.20;99.90;;;3.70;80.44;92416.41;5031871;28;20223;-71
2020/12/12 07:50:40;;;;;;;12.03;9.53;;;2.60;99.90;;;4.07;80.30;92412.53;5033002;28;20223;-71
2020/12/12 07:53:15;;;;;;;11.53;9.73;;;2.90;99.90;;;4.30;80.64;92421.72;5028982;28;20181;-71
2020/12/12 07:55:47;;;;;;;11.23;9.27;;;3.20;99.90;;;4.54;80.53;92414.91;5029194;28;20176;-72
2020/12/12 07:58:25;;;;;;;12.13;9.77;;;3.50;99.90;;;4.77;80.69;92397.81;5031398;28;20209;-71
2020/12/12 08:01:01;;;;;;;11.53;9.47;;;3.70;99.90;;;4.91;80.81;92424.28;5015148;28;20176;-72
2020/12/12 08:03:28;;;;;;;10.27;8.57;;;3.80;99.90;;;5.16;80.62;92411.88;5014958;28;20287;-73
2020/12/12 08:06:09;;;;;;;10.73;9.30;;;4.20;99.90;;;5.79;80.79;92429.72;5015525;28;20639;-73
2020/12/12 08:08:36;;;;;;;10.23;8.63;;;4.70;99.90;;;5.98;80.46;92423.59;5031808;28;20559;-72
2020/12/12 08:11:04;;;;;;;10.67;8.40;;;5.00;99.90;;;6.49;80.31;92425.88;5030465;28;20189;-72
2020/12/12 08:13:33;;;;;;;9.47;8.47;;;5.50;99.90;;;6.65;80.97;92422.84;5045154;28;20276;-72
2020/12/12 08:16:13;;;;;;;9.70;8.63;;;5.80;99.90;;;6.92;80.56;92427.59;5029004;28;20215;-72
2020/12/12 08:18:43;;;;;;;9.23;7.90;;;6.10;99.90;;;7.15;80.37;92436.63;5010050;28;20206;-72
2020/12/12 08:21:15;;;;;;;8.47;7.57;;;6.40;99.90;;;7.41;80.12;92437.13;5029737;28;20185;-72
2020/12/12 08:23:46;;;;;;;8.47;7.30;;;6.80;99.90;;;7.82;80.52;92438.22;5009037;28;20697;-73
2020/12/12 08:26:20;;;;;;;8.73;6.93;;;7.10;99.90;;;8.02;80.75;92447.72;5029748;28;20181;-73
2020/12/12 08:28:47;;;;;;;8.30;7.50;;;7.30;99.90;;;8.19;80.44;92419.75;5031864;28;20182;-73
2020/12/12 08:31:19;;;;;;;7.23;6.53;;;7.70;99.90;;;8.21;80.77;92422.09;5030790;28;20671;-73
2020/12/12 08:33:56;;;;;;;6.57;5.87;;;7.80;99.90;;;8.13;80.09;92455.19;5014543;28;20181;-73
2020/12/12 08:36:29;;;;;;;6.30;5.70;;;7.80;99.90;;;8.16;80.08;92459.91;5029327;28;20254;-72
2020/12/12 08:39:04;;;;;;;5.90;5.30;;;7.80;99.90;;;8.10;79.57;92447.84;5014528;28;20228;-73
2020/12/12 08:41:38;;;;;;;6.77;6.07;;;7.80;99.90;;;8.73;80.27;92485.22;5031188;28;20234;-73
2020/12/12 08:44:06;;;;;;;6.30;5.70;;;8.30;99.90;;;10.04;80.15;92482.09;5013401;28;20183;-72
2020/12/12 08:46:32;;;;;;;5.83;5.23;;;9.30;99.90;;;10.72;80.42;92462.66;5026953;28;20209;-72
2020/12/12 08:48:58;;;;;;;5.80;5.17;;;10.10;99.90;;;10.45;80.17;92450.28;5014122;28;20183;-72
2020/12/12 08:51:30;;;;;;;5.87;5.37;;;10.30;99.90;;;10.19;80.21;92463.31;5031295;28;20979;-72
2020/12/12 08:53:59;;;;;;;6.20;5.60;;;10.20;99.90;;;10.05;79.69;92432.59;5021541;28;20189;-72
2020/12/12 08:56:28;;;;;;;6.03;5.50;;;10.00;99.90;;;9.49;79.66;92436.38;5029445;28;20572;-73
2020/12/12 08:59:00;;;;;;;6.60;6.00;;;9.60;99.90;;;8.91;79.40;92446.66;5029831;28;20314;-73
2020/12/12 09:01:43;;;;;;;7.53;6.73;;;9.20;99.90;;;8.48;79.09;92476.91;5028902;28;20191;-73
2020/12/12 09:04:09;;;;;;;7.13;6.43;;;8.70;99.90;;;8.23;79.34;92460.31;5011227;28;20196;-73
2020/12/12 09:06:41;;;;;;;7.97;7.03;;;8.40;99.90;;;8.10;79.44;92482.16;5031340;28;20185;-74
2020/12/12 09:09:12;;;;;;;7.20;6.37;;;8.10;99.90;;;8.09;79.13;92482.44;5043250;28;20190;-72
2020/12/12 09:11:49;;;;;;;7.13;6.20;;;7.90;99.90;;;8.01;78.87;92491.75;5029087;28;20219;-74
2020/12/12 09:14:17;;;;;;;7.17;6.47;;;7.80;99.90;;;7.76;79.05;92486.78;5029895;28;20788;-71
2020/12/12 09:16:55;;;;;;;6.03;5.43;;;7.50;99.90;;;7.74;78.73;92499.47;5026660;28;20191;-76
2020/12/12 09:19:22;;;;;;;8.17;6.50;;;7.50;99.90;;;7.49;78.75;92476.00;5014859;28;20316;-74
2020/12/12 09:21:49;;;;;;;8.03;6.80;;;7.20;99.90;;;7.30;78.65;92480.44;5031891;28;20549;-72
2020/12/12 09:24:18;;;;;;;7.00;6.30;;;7.00;99.90;;;7.29;78.94;92494.66;5031020;28;20176;-72
2020/12/12 09:26:47;;;;;;;7.00;6.30;;;6.80;99.90;;;7.16;78.86;92510.06;5014073;28;20695;-71
2020/12/12 09:29:15;;;;;;;6.90;6.20;;;6.70;99.90;;;7.31;78.70;92506.53;5030622;28;20187;-72
2020/12/12 09:31:41;;;;;;;8.67;6.37;;;6.80;99.90;;;7.16;79.18;92496.91;5029037;28;20199;-72
2020/12/12 09:34:07;;;;;;;7.90;7.10;;;6.70;99.90;;;7.06;78.92;92504.13;5031627;28;20287;-73
2020/12/12 09:36:33;;;;;;;10.23;6.70;;;6.60;99.90;;;7.14;78.46;92522.75;5012115;28;20200;-73
2020/12/12 09:39:01;;;;;;;8.37;7.50;;;6.60;99.90;;;7.22;78.83;92508.97;5027549;28;20215;-72
2020/12/12 09:41:27;;;;;;;9.20;8.30;;;6.70;99.90;;;7.39;78.37;92502.47;5030945;28;20222;-73
2020/12/12 09:43:53;;;;;;;10.07;7.80;;;6.80;99.90;;;7.40;78.98;92525.94;4996376;28;20181;-72
2020/12/12 09:46:19;;;;;;;8.40;7.50;;;6.80;99.90;;;7.67;78.25;92525.38;5027092;28;20597;-74
2020/12/12 09:48:47;;;;;;;7.77;6.83;;;7.00;99.90;;;8.14;78.67;92529.84;5008680;28;20229;-74
2020/12/12 09:51:15;;;;;;;9.10;7.27;;;7.40;99.90;;;8.84;78.60;92570.41;5010605;28;20181;-73
2020/12/12 09:53:42;;;;;;;7.27;6.57;;;7.90;99.90;;;10.19;78.59;92552.53;5030825;28;20190;-73
2020/12/12 09:56:12;;;;;;;7.30;6.57;;;9.20;99.90;;;10.70;78.65;92531.09;5026483;28;20215;-74
2020/12/12 09:58:38;;;;;;;14.17;8.43;;;10.00;99.90;;;10.68;78.19;92514.69;5014465;28;20193;-74
2020/12/12 10:01:06;;;;;;;8.37;7.47;;;10.30;99.90;;;10.42;78.62;92519.75;5045882;28;20238;-74
2020/12/12 10:03:32;;;;;;;8.40;5.87;;;10.20;99.90;;;10.28;78.43;92527.72;5044034;28;20204;-74
2020/12/12 10:05:59;;;;;;;6.93;5.60;;;10.20;99.90;;;10.00;77.90;92533.28;5030988;28;20562;-74
2020/12/12 10:08:27;;;;;;;6.67;5.97;;;10.00;99.90;;;9.62;78.10;92530.81;5027917;28;20219;-75
2020/12/12 10:10:54;;;;;;;5.90;5.33;;;9.70;99.90;;;9.71;78.01;92531.69;5031211;28;20606;-76
2020/12/12 10:13:20;;;;;;;6.10;5.50;;;9.70;99.90;;;9.67;78.13;92538.63;5030693;28;20735;-74
2020/12/12 10:15:49;;;;;;;5.83;5.23;;;9.60;99.90;;;9.88;78.02;92549.66;5031326;28;20546;-76
2020/12/12 10:18:18;;;;;;;6.40;5.27;;;9.70;99.90;;;10.13;77.78;92551.03;5029088;28;20227;-76
2020/12/12 10:20:45;;;;;;;5.30;4.80;;;9.90;99.90;;;10.37;77.48;92559.59;5029774;28;20211;-76
2020/12/12 10:23:11;;;;;;;5.10;4.43;;;10.00;99.90;;;10.25;77.59;92549.47;5014106;28;20221;-76
2020/12/12 10:25:40;;;;;;;4.23;3.83;;;10.00;99.90;;;10.16;77.66;92537.25;5031806;28;20184;-75
2020/12/12 10:28:06;;;;;;;4.27;3.87;;;9.90;99.90;;;9.82;77.71;92553.47;5033020;28;20222;-75
2020/12/12 10:30:33;;;;;;;4.57;4.17;;;9.50;99.90;;;9.84;77.53;92553.94;5014963;28;20188;-75
2020/12/12 10:33:00;;;;;;;5.27;4.77;;;9.50;99.90;;;9.52;77.42;92543.44;5030119;28;20204;-75